Time;durP1;ratioP1;P1;durP2;ratioP2;P2;SDS_P1;SDS_P2;PMS_P1;PMS_P2;Temp;Humidity;BMP_temperature;BMP_pressure;BME280_temperature;BME280_humidity;BME280_pressure;Samples;Min_cycle;Max_cycle;Signal;HPM_P1;HPM_P2
2021/03/04 00:01:09;;;;;;;53.35;32.25;;;;;;;4.61;57.06;102010.03;4973041;28;20019;-78
2021/03/04 00:03:36;;;;;;;54.38;36.28;;;;;;;5.43;57.64;102130.50;4973063;28;20031;-79
2021/03/04 00:06:03;;;;;;;54.65;35.35;;;;;;;5.82;57.32;102176.25;4972913;28;20462;-80
2021/03/04 00:08:30;;;;;;;61.45;38.25;;;;;;;5.64;57.87;102167.47;4973123;28;20183;-78
2021/03/04 00:10:57;;;;;;;55.05;34.28;;;;;;;5.45;57.56;102126.56;4972796;28;20043;-79
2021/03/04 00:13:24;;;;;;;66.13;35.45;;;;;;;5.87;57.58;102189.47;4972964;28;20022;-78
2021/03/04 00:15:54;;;;;;;59.70;34.97;;;;;;;5.52;57.02;102099.19;4972798;28;20031;-78
2021/03/04 00:18:21;;;;;;;61.35;35.72;;;;;;;5.96;56.58;102179.25;4972989;28;20023;-77
2021/03/04 00:20:49;;;;;;;63.15;36.80;;;;;;;6.00;56.61;102153.13;4973043;28;20106;-78
2021/03/04 00:23:16;;;;;;;56.30;34.42;;;;;;;5.53;56.05;102094.56;4972898;28;20038;-78
2021/03/04 00:25:43;;;;;;;56.83;33.65;;;;;;;5.98;55.21;102120.31;4971827;28;20042;-78
2021/03/04 00:28:10;;;;;;;61.72;34.38;;;;;;;5.91;55.57;102115.72;4972627;28;20029;-78
2021/03/04 00:30:37;;;;;;;53.60;32.92;;;;;;;6.49;54.42;102189.50;4972746;28;20035;-80
2021/03/04 00:33:04;;;;;;;48.88;31.42;;;;;;;6.10;54.31;102123.50;4972354;28;20027;-79
2021/03/04 00:35:31;;;;;;;55.60;32.40;;;;;;;6.12;53.91;102107.66;4972547;28;20039;-81
2021/03/04 00:37:59;;;;;;;52.85;30.75;;;;;;;6.51;53.39;102174.50;4970503;28;20038;-80
2021/03/04 00:40:26;;;;;;;61.63;32.28;;;;;;;6.51;53.21;102137.88;4964353;28;20050;-80
2021/03/04 00:42:54;;;;;;;50.65;35.35;;;;;;;6.93;52.88;102188.69;4966795;28;20038;-80
2021/03/04 00:45:24;;;;;;;63.20;34.63;;;;;;;5.74;52.95;102042.53;4972244;28;20117;-79
2021/03/04 00:47:51;;;;;;;56.25;33.33;;;;;;;5.38;52.16;101990.13;4972165;28;20035;-80
2021/03/04 00:50:20;;;;;;;59.13;35.33;;;;;;;5.12;52.67;101955.69;4972441;28;20039;-79
2021/03/04 00:52:50;;;;;;;58.03;32.88;;;;;;;6.39;52.31;102132.84;4972396;28;20030;-80
2021/03/04 00:55:17;;;;;;;54.38;30.85;;;;;;;6.47;52.10;102144.81;4972657;28;20034;-79
2021/03/04 00:57:44;;;;;;;57.95;33.45;;;;;;;6.38;52.10;102111.88;4972095;28;20066;-80
2021/03/04 01:00:11;;;;;;;58.65;35.03;;;;;;;6.32;52.06;102109.88;4971791;28;20034;-80
2021/03/04 01:02:38;;;;;;;55.15;35.45;;;;;;;7.01;52.56;102203.38;4958557;28;20484;-80
2021/03/04 01:05:06;;;;;;;59.55;35.83;;;;;;;6.95;52.42;102142.53;4971934;28;20035;-79
2021/03/04 01:07:33;;;;;;;50.95;32.38;;;;;;;6.82;51.92;102131.31;4971839;28;20037;-79
2021/03/04 01:10:01;;;;;;;53.42;34.45;;;;;;;6.78;52.62;102119.00;4972066;28;20031;-80
2021/03/04 01:12:28;;;;;;;54.03;33.55;;;;;;;5.89;52.73;101992.22;4971793;28;20039;-80
2021/03/04 01:14:55;;;;;;;55.55;32.28;;;;;;;6.33;52.25;102041.94;4971878;28;20031;-80
2021/03/04 01:17:22;;;;;;;45.72;30.02;;;;;;;7.12;52.50;102140.41;4971962;28;20015;-81
2021/03/04 01:19:49;;;;;;;43.85;29.45;;;;;;;6.79;52.19;102079.41;4972264;28;20052;-79
2021/03/04 01:22:16;;;;;;;46.67;31.20;;;;;;;7.18;52.56;102114.00;4971863;28;20039;-79
2021/03/04 01:24:43;;;;;;;49.17;31.67;;;;;;;7.39;52.44;102148.97;4971735;28;20030;-79
2021/03/04 01:27:12;;;;;;;49.30;31.50;;;;;;;7.25;52.92;102150.72;4970305;28;20506;-79
2021/03/04 01:29:39;;;;;;;48.63;31.88;;;;;;;7.10;53.39;102131.50;4971664;28;20034;-79
2021/03/04 01:32:06;;;;;;;46.13;30.88;;;;;;;7.00;53.48;102108.91;4970902;28;20089;-80
2021/03/04 01:34:33;;;;;;;46.05;29.25;;;;;;;6.43;53.41;102002.09;4959994;28;20026;-79
2021/03/04 01:37:00;;;;;;;46.70;29.90;;;;;;;6.18;53.04;101931.97;4973835;28;20055;-79
2021/03/04 01:39:27;;;;;;;48.35;31.65;;;;;;;7.39;53.01;102112.31;4963093;28;20092;-80
2021/03/04 01:41:54;;;;;;;43.92;29.20;;;;;;;7.65;52.58;102138.44;4974228;28;20027;-80
2021/03/04 01:44:21;;;;;;;42.97;28.33;;;;;;;6.41;52.81;101960.19;4975617;28;20058;-79
2021/03/04 01:46:48;;;;;;;45.97;30.05;;;;;;;6.90;53.25;102067.88;4974168;28;20076;-80
2021/03/04 01:49:15;;;;;;;46.13;29.33;;;;;;;6.08;52.60;101927.63;4975861;28;20546;-82
2021/03/04 01:51:42;;;;;;;44.15;27.45;;;;;;;7.28;53.03;102104.56;4975436;28;20019;-80
2021/03/04 01:54:10;;;;;;;48.72;31.15;;;;;;;7.07;52.63;102062.19;4975363;28;20041;-80
2021/03/04 01:56:37;;;;;;;37.60;27.52;;;;;;;7.14;52.01;102067.75;4973980;28;20062;-79
2021/03/04 01:59:04;;;;;;;38.55;27.48;;;;;;;7.05;52.63;102059.59;4975554;28;20035;-79
2021/03/04 02:02:07;;;;;;;41.10;26.98;;;;;;;7.45;52.20;102129.97;4975399;28;20455;-79
2021/03/04 02:04:34;;;;;;;51.38;31.48;;;;;;;7.24;52.11;102074.66;4964467;28;20049;-79
2021/03/04 02:07:23;;;;;;;43.55;29.98;;;;;;;7.59;52.81;102114.41;4973794;28;20034;-78
2021/03/04 02:10:04;;;;;;;46.50;26.98;;;;;;;7.70;52.06;102102.00;4969662;28;20035;-79
2021/03/04 02:12:40;;;;;;;45.40;29.52;;;;;;;7.96;51.45;102109.66;4970570;28;20133;-79
2021/03/04 02:15:13;;;;;;;45.10;30.42;;;;;;;7.91;50.66;102059.81;4970831;28;20035;-78
2021/03/04 02:17:49;;;;;;;54.60;30.33;;;;;;;8.22;50.50;102064.06;4971727;28;20019;-78
2021/03/04 02:20:42;;;;;;;51.72;30.00;;;;;;;8.40;50.33;102077.34;4971629;28;20151;-80
2021/03/04 02:23:31;;;;;;;46.22;29.08;;;;;;;8.52;49.69;102099.72;4962522;28;20134;-80
2021/03/04 02:26:00;;;;;;;51.37;31.17;;;;;;;7.33;50.04;101903.72;4969776;28;20063;-79
2021/03/04 02:28:30;;;;;;;42.30;28.25;;;;;;;8.39;49.75;102030.59;4972518;28;20282;-79
2021/03/04 02:31:06;;;;;;;54.88;30.90;;;;;;;8.68;48.49;102072.84;4969281;28;20113;-80
2021/03/04 02:33:34;;;;;;;49.63;30.48;;;;;;;8.82;48.65;102046.13;4972699;28;20049;-81
2021/03/04 02:36:02;;;;;;;47.75;28.85;;;;;;;7.98;49.04;101974.34;4969797;28;20652;-79
2021/03/04 02:38:30;;;;;;;43.10;27.77;;;;;;;7.43;50.01;101867.53;4971833;28;20500;-79
2021/03/04 02:40:59;;;;;;;44.22;29.88;;;;;;;8.96;48.67;102077.41;4972644;28;20027;-80
2021/03/04 02:43:30;;;;;;;49.10;29.00;;;;;;;9.07;48.93;102076.81;4971633;28;20031;-79
2021/03/04 02:46:00;;;;;;;42.85;27.30;;;;;;;7.70;48.39;101882.34;4968459;28;20050;-79
2021/03/04 02:48:28;;;;;;;52.88;30.05;;;;;;;8.06;48.40;101897.81;4965278;28;20049;-80
2021/03/04 02:50:56;;;;;;;45.30;30.48;;;;;;;8.67;48.65;101974.50;4963980;28;20038;-79
2021/03/04 02:53:24;;;;;;;43.13;28.52;;;;;;;9.20;48.69;102064.13;4968458;28;20034;-79
2021/03/04 02:55:53;;;;;;;45.80;30.33;;;;;;;8.62;49.00;101975.97;4963882;28;20042;-78
2021/03/04 02:58:20;;;;;;;49.08;30.00;;;;;;;9.04;48.38;102027.53;4960104;28;20071;-80
2021/03/04 03:00:49;;;;;;;43.85;28.65;;;;;;;8.24;48.67;101874.31;4963881;28;20574;-79
2021/03/04 03:03:17;;;;;;;42.50;28.77;;;;;;;8.62;49.22;101933.72;4963384;28;20500;-79
2021/03/04 03:05:46;;;;;;;59.85;30.70;;;;;;;8.91;48.40;101973.06;4954923;28;20036;-82
2021/03/04 03:08:19;;;;;;;40.33;29.70;;;;;;;9.23;48.20;102005.66;4954781;29;20019;-79
2021/03/04 03:10:52;;;;;;;48.90;28.67;;;;;;;9.51;48.63;102055.22;4954690;28;20031;-80
2021/03/04 03:13:20;;;;;;;45.97;28.27;;;;;;;9.30;48.81;102045.22;4954678;28;20047;-79
2021/03/04 03:15:47;;;;;;;43.60;28.65;;;;;;;8.70;49.60;101965.78;4954769;28;20023;-79
2021/03/04 03:18:14;;;;;;;44.17;29.38;;;;;;;9.18;48.75;102048.56;4954567;28;20472;-79
2021/03/04 03:20:41;;;;;;;42.47;29.48;;;;;;;9.45;48.89;102056.06;4965767;28;20507;-79
2021/03/04 03:23:08;;;;;;;50.00;31.50;;;;;;;8.49;48.18;101844.25;4954771;28;20046;-79
2021/03/04 03:25:35;;;;;;;46.38;29.85;;;;;;;9.01;48.45;101962.47;4969915;28;20117;-80
2021/03/04 03:28:02;;;;;;;50.08;29.35;;;;;;;8.61;48.68;101885.91;4970458;28;20029;-80
2021/03/04 03:30:30;;;;;;;48.53;29.75;;;;;;;8.46;48.89;101902.59;4970169;28;20034;-80
2021/03/04 03:33:08;;;;;;;49.58;29.77;;;;;;;8.85;48.77;101922.28;4971935;28;20062;-79
2021/03/04 03:35:38;;;;;;;47.42;29.55;;;;;;;9.35;48.15;101957.00;4957617;28;20031;-80
2021/03/04 03:38:06;;;;;;;43.73;28.80;;;;;;;8.51;48.33;101815.59;4970449;28;20030;-79
2021/03/04 03:40:35;;;;;;;56.67;31.70;;;;;;;9.45;48.34;101974.00;4970694;28;20297;-80
2021/03/04 03:43:06;;;;;;;45.50;30.77;;;;;;;9.22;48.15;101890.66;4958161;28;20022;-80
2021/03/04 03:45:48;;;;;;;43.97;29.30;;;;;;;9.40;48.34;101937.00;4967460;28;20026;-80
2021/03/04 03:48:17;;;;;;;41.58;30.95;;;;;;;9.64;47.72;101945.69;4969635;28;20089;-80
2021/03/04 03:50:48;;;;;;;46.17;32.00;;;;;;;10.03;47.78;101995.66;4973682;28;20077;-80
2021/03/04 03:53:17;;;;;;;40.97;28.02;;;;;;;9.84;48.20;101992.69;4971661;28;20026;-80
2021/03/04 03:55:49;;;;;;;47.65;30.35;;;;;;;9.72;48.37;101976.75;4973455;28;20022;-81
2021/03/04 03:58:21;;;;;;;46.75;29.33;;;;;;;9.71;47.98;101969.50;4973139;28;20023;-80
2021/03/04 04:00:49;;;;;;;44.78;28.65;;;;;;;9.82;48.62;101956.09;4973193;28;20443;-80
2021/03/04 04:03:16;;;;;;;44.55;28.88;;;;;;;9.37;48.16;101894.06;4973439;28;20027;-80
2021/03/04 04:05:43;;;;;;;48.97;31.00;;;;;;;9.01;48.74;101834.53;4973792;28;20062;-79
2021/03/04 04:08:10;;;;;;;42.22;28.65;;;;;;;9.36;48.96;101874.91;4974121;28;20023;-80
2021/03/04 04:10:38;;;;;;;41.28;29.95;;;;;;;9.81;48.89;101919.28;4973504;28;20022;-79
2021/03/04 04:13:06;;;;;;;45.47;29.00;;;;;;;8.69;48.09;101704.56;4980777;28;20042;-80
2021/03/04 04:15:33;;;;;;;46.38;31.05;;;;;;;10.08;48.60;101935.81;4990332;28;20395;-79
2021/03/04 04:18:02;;;;;;;51.20;31.92;;;;;;;9.13;49.19;101799.69;4973217;28;20031;-80
2021/03/04 04:20:30;;;;;;;49.53;29.85;;;;;;;9.34;49.38;101825.41;4971105;28;20042;-80
2021/03/04 04:22:58;;;;;;;45.22;29.70;;;;;;;9.83;48.70;101859.09;4967311;28;20146;-80
2021/03/04 04:25:26;;;;;;;47.00;27.98;;;;;;;9.64;48.66;101812.97;4970438;28;20039;-79
2021/03/04 04:27:55;;;;;;;49.33;28.40;;;;;;;9.82;48.84;101853.75;4969927;28;20022;-80
2021/03/04 04:30:24;;;;;;;34.35;24.77;;;;;;;10.22;49.05;101900.63;4966008;28;20038;-81
2021/03/04 04:32:53;;;;;;;42.65;27.38;;;;;;;9.47;48.55;101788.56;4966987;28;20086;-81
2021/03/04 04:35:20;;;;;;;46.53;30.77;;;;;;;10.08;49.59;101907.28;4966546;28;20034;-80
2021/03/04 04:37:47;;;;;;;49.45;30.50;;;;;;;9.40;48.72;101736.06;4964192;28;20027;-80
2021/03/04 04:40:14;;;;;;;43.75;25.60;;;;;;;9.95;48.63;101817.75;4959990;28;20031;-80
2021/03/04 04:42:41;;;;;;;45.78;29.60;;;;;;;10.02;49.36;101834.31;4964637;28;20031;-80
2021/03/04 04:45:09;;;;;;;43.20;26.73;;;;;;;10.23;49.47;101855.28;4963707;28;20337;-79
2021/03/04 04:47:36;;;;;;;35.20;24.60;;;;;;;9.41;49.07;101740.53;4966192;28;20484;-79
2021/03/04 04:50:05;;;;;;;42.40;27.67;;;;;;;10.20;49.35;101875.09;4968423;28;20106;-79
2021/03/04 04:52:32;;;;;;;42.58;26.98;;;;;;;10.11;49.91;101851.53;4959233;28;20082;-80
2021/03/04 04:54:59;;;;;;;41.30;26.80;;;;;;;9.84;49.95;101808.22;4971585;28;20507;-79
2021/03/04 04:57:26;;;;;;;39.38;24.15;;;;;;;9.69;49.87;101778.06;4964725;28;20505;-82
2021/03/04 04:59:53;;;;;;;37.65;27.25;;;;;;;10.06;50.02;101796.84;4956524;28;20039;-79
2021/03/04 05:02:20;;;;;;;46.55;29.08;;;;;;;10.25;49.76;101808.88;4962592;28;20385;-80
2021/03/04 05:04:47;;;;;;;41.83;27.52;;;;;;;9.93;49.87;101792.22;4961642;28;20027;-80
2021/03/04 05:07:14;;;;;;;46.60;28.17;;;;;;;10.44;49.77;101842.22;4965756;28;20646;-80
2021/03/04 05:09:41;;;;;;;39.60;28.02;;;;;;;10.58;49.25;101842.97;4960548;28;20066;-79
2021/03/04 05:12:09;;;;;;;46.40;28.90;;;;;;;10.25;49.72;101800.56;4966226;28;20134;-81
2021/03/04 05:14:36;;;;;;;41.35;26.67;;;;;;;10.52;49.32;101822.56;4963008;28;20455;-79
2021/03/04 05:17:03;;;;;;;53.08;29.38;;;;;;;10.36;50.37;101842.44;4964352;28;20034;-81
2021/03/04 05:19:30;;;;;;;41.00;27.17;;;;;;;10.35;50.35;101799.22;4957642;28;20098;-79
2021/03/04 05:21:57;;;;;;;49.50;27.95;;;;;;;10.01;49.13;101710.88;4968405;28;20125;-80
2021/03/04 05:24:24;;;;;;;39.03;27.48;;;;;;;10.00;49.24;101718.31;4965438;28;20089;-79
2021/03/04 05:26:51;;;;;;;40.13;26.45;;;;;;;10.50;49.71;101779.56;4969716;28;20031;-80
2021/03/04 05:29:18;;;;;;;41.70;27.80;;;;;;;10.44;49.12;101773.00;4966438;28;20035;-79
2021/03/04 05:31:45;;;;;;;42.88;26.98;;;;;;;10.81;49.34;101811.06;4967379;28;20025;-79
2021/03/04 05:34:12;;;;;;;42.45;25.85;;;;;;;9.65;48.98;101638.56;4967365;28;20117;-79
2021/03/04 05:36:39;;;;;;;32.47;23.92;;;;;;;10.03;50.21;101746.63;4970061;28;20187;-80
2021/03/04 05:39:06;;;;;;;34.78;26.50;;;;;;;9.66;49.88;101703.00;4971593;28;20487;-79
2021/03/04 05:41:35;;;;;;;40.17;25.48;;;;;;;9.99;49.69;101711.09;4963703;28;20477;-79
2021/03/04 05:44:02;;;;;;;40.65;24.52;;;;;;;10.33;49.81;101757.94;4969400;28;20054;-80
2021/03/04 05:46:31;;;;;;;36.67;24.45;;;;;;;10.72;49.55;101807.75;4969656;28;20034;-79
2021/03/04 05:48:59;;;;;;;35.03;23.70;;;;;;;10.23;49.61;101718.84;4961922;28;20022;-80
2021/03/04 05:51:31;;;;;;;34.92;23.60;;;;;;;10.02;49.67;101726.41;4961939;28;20507;-80
2021/03/04 05:53:59;;;;;;;37.67;25.50;;;;;;;10.16;49.94;101740.16;4955573;28;20024;-80
2021/03/04 05:56:27;;;;;;;38.83;23.52;;;;;;;9.52;49.55;101622.03;4966684;28;20055;-80
2021/03/04 05:58:54;;;;;;;34.80;22.83;;;;;;;10.71;49.79;101799.66;4966494;28;20031;-80
2021/03/04 06:01:21;;;;;;;35.53;23.80;;;;;;;10.76;49.60;101794.28;4969413;28;20035;-80
2021/03/04 06:03:48;;;;;;;45.70;26.98;;;;;;;10.29;49.46;101706.00;4961289;28;20031;-80
2021/03/04 06:06:16;;;;;;;39.45;23.48;;;;;;;10.53;49.50;101737.59;4963208;28;20031;-81
2021/03/04 06:08:43;;;;;;;38.42;24.23;;;;;;;10.20;49.62;101706.28;4967296;28;20034;-80
2021/03/04 06:11:10;;;;;;;34.42;25.10;;;;;;;10.52;49.53;101756.13;4957559;28;20039;-79
2021/03/04 06:13:37;;;;;;;34.55;21.50;;;;;;;10.08;49.89;101691.47;4964969;28;20034;-81
2021/03/04 06:16:05;;;;;;;32.88;24.00;;;;;;;10.84;49.46;101784.84;4971295;28;20035;-80
2021/03/04 06:18:42;;;;;;;34.58;23.73;;;;;;;10.80;49.50;101771.44;4967939;28;20485;-80
2021/03/04 06:21:23;;;;;;;35.60;24.02;;;;;;;10.94;50.12;101768.56;4969574;28;20586;-81
2021/03/04 06:23:51;;;;;;;33.63;21.60;;;;;;;10.95;48.97;101764.72;4973153;28;20035;-81
2021/03/04 06:26:27;;;;;;;29.08;21.80;;;;;;;10.99;49.03;101759.56;4969635;28;20468;-78
2021/03/04 06:28:55;;;;;;;38.00;21.92;;;;;;;10.09;49.43;101649.75;4971153;28;20084;-80
2021/03/04 06:31:22;;;;;;;36.15;22.63;;;;;;;10.30;49.09;101657.88;4970865;28;20027;-80
2021/03/04 06:33:50;;;;;;;31.77;20.35;;;;;;;11.09;48.77;101777.38;4966545;28;20050;-80
2021/03/04 06:36:19;;;;;;;26.08;18.80;;;;;;;10.50;49.77;101718.66;4962925;28;20023;-79
2021/03/04 06:38:56;;;;;;;31.08;20.27;;;;;;;10.80;49.66;101746.50;4969530;28;20282;-81
2021/03/04 06:41:24;;;;;;;32.45;21.25;;;;;;;11.01;49.94;101783.19;4971079;28;20038;-80
2021/03/04 06:44:02;;;;;;;38.15;21.17;;;;;;;11.00;50.16;101775.09;4964906;28;20055;-79
2021/03/04 06:46:29;;;;;;;31.65;19.48;;;;;;;10.54;48.99;101686.66;4968465;28;20499;-80
2021/03/04 06:48:56;;;;;;;27.05;18.67;;;;;;;10.81;49.31;101730.72;4963758;28;20114;-80
2021/03/04 06:51:23;;;;;;;26.27;18.38;;;;;;;9.12;48.79;101451.81;4969856;28;20489;-81
2021/03/04 06:53:52;;;;;;;30.55;18.60;;;;;;;10.79;48.78;101700.50;4960175;28;20053;-80
2021/03/04 06:56:30;;;;;;;33.78;17.98;;;;;;;11.29;48.64;101764.38;4963930;28;20051;-80
2021/03/04 06:59:02;;;;;;;27.55;15.65;;;;;;;11.26;48.15;101751.81;4967449;28;20022;-79
2021/03/04 07:01:29;;;;;;;20.65;14.95;;;;;;;11.41;48.33;101794.94;4972095;28;20090;-80
2021/03/04 07:03:57;;;;;;;19.83;13.88;;;;;;;11.26;48.90;101778.69;4962423;28;20026;-80
2021/03/04 07:06:25;;;;;;;27.20;16.02;;;;;;;11.34;48.48;101775.59;4963620;28;20034;-80
2021/03/04 07:08:54;;;;;;;28.17;15.27;;;;;;;11.27;48.64;101778.44;4965606;28;20163;-80
2021/03/04 07:11:25;;;;;;;20.58;14.07;;;;;;;11.26;48.99;101773.13;4971782;28;20074;-81
2021/03/04 07:13:53;;;;;;;23.77;15.82;;;;;;;11.22;49.22;101773.59;4969685;28;20031;-80
2021/03/04 07:16:21;;;;;;;20.13;12.48;;;;;;;11.20;49.13;101761.03;4969258;28;20019;-80
2021/03/04 07:18:50;;;;;;;26.38;14.52;;;;;;;10.17;49.09;101597.97;4963076;28;20057;-80
2021/03/04 07:21:18;;;;;;;20.63;14.70;;;;;;;10.96;48.67;101705.44;4969910;28;20055;-80
2021/03/04 07:23:47;;;;;;;23.08;14.52;;;;;;;11.21;48.90;101730.34;4965425;28;20037;-80
2021/03/04 07:26:16;;;;;;;20.90;14.05;;;;;;;10.76;48.61;101640.00;4966159;28;20023;-83
2021/03/04 07:28:45;;;;;;;19.45;12.80;;;;;;;11.22;48.44;101725.63;4962902;28;20388;-84
2021/03/04 07:31:14;;;;;;;20.73;15.23;;;;;;;11.44;48.56;101761.19;4972134;28;20026;-85
2021/03/04 07:33:49;;;;;;;22.00;12.55;;;;;;;9.97;48.93;101547.25;4965884;28;20542;-84
2021/03/04 07:36:20;;;;;;;22.63;12.45;;;;;;;11.34;48.84;101739.56;4967093;28;20070;-82
2021/03/04 07:38:55;;;;;;;18.42;12.85;;;;;;;11.05;48.80;101686.59;4969602;28;20033;-83
2021/03/04 07:41:23;;;;;;;15.82;10.55;;;;;;;10.87;49.12;101679.13;4972991;28;20480;-83
2021/03/04 07:43:54;;;;;;;14.05;8.25;;;;;;;11.43;49.32;101759.50;4983892;28;20082;-85
2021/03/04 07:46:34;;;;;;;14.45;9.90;;;;;;;11.49;49.48;101753.03;4992505;28;20099;-82
2021/03/04 07:49:07;;;;;;;16.70;11.02;;;;;;;10.88;49.50;101661.41;4989716;28;20034;-83
2021/03/04 07:52:09;;;;;;;12.45;9.98;;;;;;;11.34;49.15;101718.22;4974962;28;20030;-83
2021/03/04 07:54:38;;;;;;;20.10;10.18;;;;;;;11.40;49.84;101754.44;4958250;28;20510;-82
2021/03/04 07:57:16;;;;;;;18.10;11.15;;;;;;;11.20;48.95;101694.53;4972910;28;20480;-84
2021/03/04 08:00:09;;;;;;;17.58;11.38;;;;;;;11.54;49.01;101749.56;4973473;28;20023;-84
2021/03/04 08:02:37;;;;;;;20.65;12.57;;;;;;;11.21;49.09;101730.34;4970643;28;20043;-84
2021/03/04 08:05:14;;;;;;;20.65;11.43;;;;;;;11.30;49.19;101733.63;4976819;28;20034;-85
2021/03/04 08:07:43;;;;;;;19.13;11.55;;;;;;;11.46;49.07;101742.41;4970651;28;20093;-85
2021/03/04 08:10:10;;;;;;;18.40;12.95;;;;;;;11.49;49.25;101753.88;4970702;28;20027;-83
2021/03/04 08:12:52;;;;;;;18.33;12.77;;;;;;;11.17;48.64;101723.53;4969090;28;20039;-83
2021/03/04 08:15:32;;;;;;;17.85;11.93;;;;;;;10.91;49.48;101697.81;4975836;28;20033;-87
2021/03/04 08:18:00;;;;;;;15.80;10.98;;;;;;;10.96;49.54;101694.34;4965136;28;20014;-82
2021/03/04 08:20:28;;;;;;;18.85;11.38;;;;;;;10.75;49.07;101682.63;4968779;28;20053;-82
2021/03/04 08:22:57;;;;;;;16.98;9.95;;;;;;;10.99;49.81;101723.53;4969410;28;20034;-83
2021/03/04 08:25:29;;;;;;;22.08;12.18;;;;;;;10.95;49.60;101725.91;4971368;28;20038;-83
2021/03/04 08:27:59;;;;;;;21.88;11.18;;;;;;;10.74;50.02;101675.41;4972616;28;20144;-82
2021/03/04 08:30:34;;;;;;;20.50;12.30;;;;;;;11.27;49.54;101772.91;4967092;28;20384;-81
2021/03/04 08:33:06;;;;;;;16.92;10.98;;;;;;;10.90;49.57;101700.81;4967759;28;20110;-81
2021/03/04 08:35:40;;;;;;;15.30;10.88;;;;;;;11.21;49.94;101757.19;4965043;28;20027;-85
2021/03/04 08:38:12;;;;;;;17.58;11.65;;;;;;;11.26;49.94;101756.50;4967264;28;20030;-84
2021/03/04 08:40:41;;;;;;;17.20;11.30;;;;;;;11.17;50.17;101755.97;4968235;28;20035;-85
2021/03/04 08:43:25;;;;;;;18.85;11.25;;;;;;;10.67;50.42;101681.00;4971681;28;20027;-84
2021/03/04 08:46:07;;;;;;;21.98;12.38;;;;;;;10.09;49.85;101613.78;4966303;28;20096;-85
2021/03/04 08:48:34;;;;;;;16.48;11.52;;;;;;;10.61;50.43;101689.38;4972682;28;20034;-80
2021/03/04 08:51:06;;;;;;;18.58;11.38;;;;;;;10.99;50.30;101749.31;4971987;28;20034;-79
2021/03/04 08:53:35;;;;;;;13.93;9.15;;;;;;;10.64;49.68;101689.75;4970913;28;20083;-80
2021/03/04 08:56:03;;;;;;;17.83;9.60;;;;;;;10.96;49.93;101752.53;4971470;28;20065;-80
2021/03/04 08:58:32;;;;;;;25.35;11.00;;;;;;;10.25;50.07;101634.50;4970671;28;20564;-82
2021/03/04 09:01:01;;;;;;;15.65;11.27;;;;;;;10.36;50.75;101673.59;4965724;28;20098;-80
2021/03/04 09:03:33;;;;;;;15.45;10.27;;;;;;;10.68;51.19;101754.72;4963175;28;20042;-81
2021/03/04 09:06:18;;;;;;;14.88;9.90;;;;;;;10.16;51.51;101679.28;4965129;28;20026;-81
2021/03/04 09:08:47;;;;;;;21.05;10.38;;;;;;;10.63;51.39;101762.00;4959839;28;20031;-80
2021/03/04 09:11:30;;;;;;;13.32;9.63;;;;;;;10.61;51.45;101764.13;4971290;28;20377;-81
2021/03/04 09:14:04;;;;;;;12.88;10.00;;;;;;;10.63;51.47;101764.78;4964667;28;20035;-80
2021/03/04 09:16:50;;;;;;;14.52;9.65;;;;;;;10.08;51.33;101677.63;4963444;28;20054;-82
2021/03/04 09:19:51;;;;;;;14.85;8.68;;;;;;;10.25;51.75;101725.84;4961264;28;20495;-83
2021/03/04 09:22:19;;;;;;;21.30;8.98;;;;;;;10.48;51.60;101770.63;4971245;28;20113;-80
2021/03/04 09:24:47;;;;;;;9.77;7.18;;;;;;;10.46;51.69;101781.94;4968150;28;20025;-79
2021/03/04 09:27:17;;;;;;;21.75;8.90;;;;;;;9.89;51.91;101715.41;4970436;28;20547;-80
2021/03/04 09:29:44;;;;;;;;;;;;;;;10.31;52.10;101778.59;4971440;28;20033;-79
2021/03/04 09:32:12;;;;;;;15.15;8.32;;;;;;;9.98;52.65;101737.06;4968639;28;19921;-81
2021/03/04 09:34:42;;;;;;;14.18;8.95;;;;;;;8.93;53.07;101573.25;4968699;28;20063;-80
2021/03/04 09:37:22;;;;;;;13.48;8.82;;;;;;;9.71;53.48;101719.78;4968152;28;20027;-80
2021/03/04 09:39:52;;;;;;;13.32;9.63;;;;;;;10.02;53.99;101778.13;4968271;28;20051;-83
2021/03/04 09:42:34;;;;;;;14.88;9.45;;;;;;;9.91;53.66;101782.44;4969653;28;20033;-82
2021/03/04 09:45:06;;;;;;;18.83;10.05;;;;;;;9.93;54.06;101808.81;4966645;28;20991;-79
2021/03/04 09:47:34;;;;;;;17.80;9.90;;;;;;;9.52;53.85;101765.81;4970742;28;20026;-79
2021/03/04 09:50:15;;;;;;;16.45;10.95;;;;;;;9.49;54.69;101756.03;4965689;28;20027;-79
2021/03/04 09:52:42;;;;;;;19.02;11.52;;;;;;;9.80;55.00;101814.41;4969900;28;20035;-79
2021/03/04 09:55:15;;;;;;;23.35;12.10;;;;;;;9.04;55.24;101693.25;4969741;28;20030;-79
2021/03/04 09:57:44;;;;;;;19.70;10.95;;;;;;;9.00;55.10;101722.34;4969069;28;20030;-80
2021/03/04 10:00:18;;;;;;;24.02;12.02;;;;;;;9.64;55.68;101832.34;4970430;28;20119;-80
2021/03/04 10:02:49;;;;;;;23.30;14.38;;;;;;;9.66;55.90;101839.34;4969831;28;20050;-80
2021/03/04 10:05:18;;;;;;;22.23;14.45;;;;;;;9.09;56.24;101768.03;4974554;28;20493;-79
2021/03/04 10:07:46;;;;;;;23.63;13.85;;;;;;;9.13;57.10;101782.25;4975220;28;20038;-79
2021/03/04 10:10:21;;;;;;;33.92;18.80;;;;;;;9.44;58.25;101870.00;4970971;28;20031;-80
2021/03/04 10:12:56;;;;;;;28.10;16.83;;;;;;;9.48;57.41;101853.84;4965200;28;20077;-80
2021/03/04 10:15:32;;;;;;;22.98;17.33;;;;;;;9.16;57.61;101815.00;4968909;28;20069;-80
2021/03/04 10:18:03;;;;;;;32.40;18.25;;;;;;;8.97;58.67;101817.56;4967753;28;20086;-79
2021/03/04 10:20:31;;;;;;;30.02;20.35;;;;;;;8.32;57.55;101725.13;4971746;28;20125;-81
2021/03/04 10:22:58;;;;;;;29.50;20.02;;;;;;;9.01;58.96;101862.16;4969061;28;20038;-80
2021/03/04 10:25:26;;;;;;;31.00;19.40;;;;;;;9.13;58.46;101857.72;4974386;28;20029;-80
2021/03/04 10:27:55;;;;;;;31.27;20.77;;;;;;;9.04;58.03;101845.19;4970566;28;20034;-80
2021/03/04 10:30:22;;;;;;;30.55;19.40;;;;;;;9.02;58.57;101847.28;4965095;28;20560;-79
2021/03/04 10:32:49;;;;;;;34.70;20.92;;;;;;;9.02;58.66;101863.88;4973849;28;20466;-79
2021/03/04 10:35:17;;;;;;;30.17;20.50;;;;;;;8.74;58.39;101829.03;4965985;28;20396;-80
2021/03/04 10:37:44;;;;;;;28.38;20.80;;;;;;;8.93;58.71;101860.50;4971263;28;20034;-79
2021/03/04 10:40:13;;;;;;;38.45;21.70;;;;;;;8.69;58.61;101815.00;4962031;28;20042;-79
2021/03/04 10:42:40;;;;;;;39.47;23.35;;;;;;;8.33;58.16;101765.44;4972676;28;20062;-80
2021/03/04 10:45:11;;;;;;;32.55;21.58;;;;;;;8.56;58.42;101791.84;4969730;28;20081;-81
2021/03/04 10:47:38;;;;;;;;;;;;;;;8.84;58.77;101859.84;4970175;28;20372;-78
2021/03/04 10:50:07;;;;;;;36.65;22.35;;;;;;;8.35;58.76;101777.16;4969248;28;19922;-80
2021/03/04 10:52:34;;;;;;;36.97;23.23;;;;;;;8.25;59.48;101762.06;4972611;28;20034;-79
2021/03/04 10:55:01;;;;;;;37.95;24.15;;;;;;;7.95;59.85;101721.88;4960939;28;20034;-79
2021/03/04 10:57:28;;;;;;;41.67;25.67;;;;;;;7.96;59.33;101722.75;4964932;28;20053;-80
2021/03/04 10:59:55;;;;;;;33.70;23.70;;;;;;;7.73;58.24;101686.19;4971496;28;20500;-79
2021/03/04 11:02:22;;;;;;;37.67;23.48;;;;;;;8.31;57.79;101775.84;4972080;28;20399;-78
2021/03/04 11:04:49;;;;;;;39.92;22.77;;;;;;;7.46;57.89;101635.66;4973226;28;20057;-78
2021/03/04 11:07:16;;;;;;;40.08;27.67;;;;;;;8.80;58.08;101855.78;4968443;28;20050;-78
2021/03/04 11:09:43;;;;;;;39.30;23.88;;;;;;;8.33;58.37;101790.28;4970528;28;20027;-78
2021/03/04 11:12:10;;;;;;;36.03;24.77;;;;;;;8.25;58.73;101782.22;4968153;28;20042;-78
2021/03/04 11:14:38;;;;;;;42.58;26.60;;;;;;;8.38;58.77;101802.63;4968104;28;20582;-79
2021/03/04 11:17:05;;;;;;;34.33;23.63;;;;;;;8.76;58.69;101871.09;4971664;28;20061;-78
2021/03/04 11:19:32;;;;;;;37.47;25.23;;;;;;;8.38;59.46;101800.69;4968210;28;20393;-79
2021/03/04 11:21:59;;;;;;;44.58;28.95;;;;;;;8.75;58.52;101861.94;4969061;28;20034;-79
2021/03/04 11:24:27;;;;;;;42.15;27.45;;;;;;;8.62;58.36;101840.69;4969919;28;20168;-79
2021/03/04 11:26:54;;;;;;;48.28;25.27;;;;;;;8.56;58.11;101832.41;4960633;28;20026;-77